Polar Ranger — WDC8652 — position and weather

sailwx.info

Track history (hours):
 
Tides and Currents Weather Stations Pressure Air Temp Water Temp Dewpoint Dewpoint Depression Visibility Wind Speed Wind Dir Waves Ship Positions

Polar Ranger

Owner: Dunlap Towing Co., LaConner, WA. More information available from US FCC via Universal Licensing System and Coast Guard Vessel Documentation Center.

Last reported at 2015-May-08 01:27 UTC. Time now 2015-May-26 15:46 UTC.
Position N 58°17' W 136°19'.
Warning: this ship's position is 18 days out of date.

Type: Tow > 200 m length. MMSI: 367090860.

Date/timePositionNaut miles runAvg speedWind from/ knotsBaromVisibWave heightAir tempDewpointWater temp
2015-May-08 01:27N 58°17' W 136°19'6 6.5
2015-May-08 00:33N 58°15' W 136°09'5 5.3
2015-May-07 23:33N 58°16' W 135°59'6 6.1
2015-May-07 22:33N 58°18' W 135°48'  
2015-May-04 05:07N 49°22' W 127°00'4 6.6
2015-May-04 04:32N 49°19' W 126°55'6 6.5
2015-May-04 03:33N 49°15' W 126°48'7 6.3
2015-May-04 02:30N 49°10' W 126°42'8 6.3
2015-May-04 01:12N 49°04' W 126°33'4 6.3
2015-May-04 00:33N 49°01' W 126°29'6 6.2
2015-May-03 23:33N 48°57' W 126°21'6 6.4
2015-May-03 22:33N 48°53' W 126°15'6 6.4
2015-May-03 21:33N 48°48' W 126°08'7 6.6
2015-May-03 20:33N 48°44' W 126°00'7 6.7
2015-May-03 19:33N 48°39' W 125°53'5 5.0
2015-May-03 18:33N 48°37' W 125°46'8 7.2
2015-May-03 17:31N 48°35' W 125°35'7 7.1
2015-May-03 16:33N 48°32' W 125°25'59 7.3
2015-May-03 08:27N 48°13' W 124°02'6 6.8
2015-May-03 07:32N 48°12' W 123°53'7 7.6
2015-May-03 06:33N 48°11' W 123°41'1 8.1
2015-May-03 06:30N 48°11' W 123°40'8 8.4
2015-May-03 05:33N 48°12' W 123°29'9 8.6
2015-May-03 04:33N 48°12' W 123°16'7 6.9
2015-May-03 03:32N 48°13' W 123°05'10 8.5
2015-May-03 02:22N 48°12' W 122°51'8 8.2
2015-May-03 01:27N 48°08' W 122°41'6 6.7
2015-May-03 00:32N 48°02' W 122°38'6 6.4
2015-May-02 23:38N 47°57' W 122°33'1 6.9
2015-May-02 23:33N 47°57' W 122°33'2 6.4
2015-May-02 23:18N 47°56' W 122°31'5 6.5
2015-May-02 22:33N 47°52' W 122°28'1 6.7
2015-May-02 22:28N 47°51' W 122°27'6 6.7
2015-May-02 21:33N 47°45' W 122°26'6 6.5
2015-May-02 20:41N 47°40' W 122°27'1 6.5
2015-May-02 20:33N 47°39' W 122°27'0 6.1
2015-May-02 20:31N 47°39' W 122°27'4 4.6
2015-May-02 19:33N 47°36' W 122°22'0 0.0
2015-May-02 19:31N 47°36' W 122°22'1 0.6
2015-May-02 18:33N 47°35' W 122°21'0 0.0
2015-May-02 18:29N 47°35' W 122°21'0 0.0
2015-May-02 17:34N 47°35' W 122°21'0 0.0
2015-May-02 17:33N 47°35' W 122°21'0 0.0
2015-May-02 16:33N 47°35' W 122°21'0 0.0
2015-May-02 16:33N 47°35' W 122°21'0 0.0
2015-May-02 15:33N 47°35' W 122°21'0 0.2
2015-May-02 15:07N 47°35' W 122°21'1 1.0
2015-May-02 14:33N 47°35' W 122°22'0 0.0
2015-May-02 14:32N 47°35' W 122°22'1010.5
2015-May-02 13:33N 47°45' W 122°25'011.4
2015-May-02 13:32N 47°46' W 122°25'1313.6
2015-May-02 12:33N 47°58' W 122°17'3 2.9
2015-May-02 11:33N 47°59' W 122°13'0 0.0
2015-May-02 10:33N 47°59' W 122°13'0 0.0
2015-May-02 09:33N 47°59' W 122°13'0 0.0
2015-May-02 08:33N 47°59' W 122°13'0 0.0
2015-May-02 07:33N 47°59' W 122°13'0 0.0
2015-May-02 06:33N 47°59' W 122°13'0 0.0
2015-May-02 05:33N 47°59' W 122°13'0 0.0
2015-May-02 04:33N 47°59' W 122°13'0 0.0
2015-May-02 03:33N 47°59' W 122°13'0 0.0
2015-May-02 02:33N 47°59' W 122°13'  
Track history (hours):
 
Tides and Currents Weather Stations Pressure Air Temp Water Temp Dewpoint Dewpoint Depression Visibility Wind Speed Wind Dir Waves Ship Positions

Polar Ranger

Owner: Dunlap Towing Co., LaConner, WA. More information available from US FCC via Universal Licensing System and Coast Guard Vessel Documentation Center.

Last reported at 2015-May-08 01:27 UTC. Time now 2015-May-26 15:46 UTC.
Position N 58°17' W 136°19'.
Warning: this ship's position is 18 days out of date.

Type: Tow > 200 m length. MMSI: 367090860.

Date/timePositionNaut miles runAvg speedWind from/ knotsBaromVisibWave heightAir tempDewpointWater temp
2015-May-08 01:27N 58°17' W 136°19'6 6.5
2015-May-08 00:33N 58°15' W 136°09'5 5.3
2015-May-07 23:33N 58°16' W 135°59'6 6.1
2015-May-07 22:33N 58°18' W 135°48'  
2015-May-04 05:07N 49°22' W 127°00'4 6.6
2015-May-04 04:32N 49°19' W 126°55'6 6.5
2015-May-04 03:33N 49°15' W 126°48'7 6.3
2015-May-04 02:30N 49°10' W 126°42'8 6.3
2015-May-04 01:12N 49°04' W 126°33'4 6.3
2015-May-04 00:33N 49°01' W 126°29'6 6.2
2015-May-03 23:33N 48°57' W 126°21'6 6.4
2015-May-03 22:33N 48°53' W 126°15'6 6.4
2015-May-03 21:33N 48°48' W 126°08'7 6.6
2015-May-03 20:33N 48°44' W 126°00'7 6.7
2015-May-03 19:33N 48°39' W 125°53'5 5.0
2015-May-03 18:33N 48°37' W 125°46'8 7.2
2015-May-03 17:31N 48°35' W 125°35'7 7.1
2015-May-03 16:33N 48°32' W 125°25'59 7.3
2015-May-03 08:27N 48°13' W 124°02'6 6.8
2015-May-03 07:32N 48°12' W 123°53'7 7.6
2015-May-03 06:33N 48°11' W 123°41'1 8.1
2015-May-03 06:30N 48°11' W 123°40'8 8.4
2015-May-03 05:33N 48°12' W 123°29'9 8.6
2015-May-03 04:33N 48°12' W 123°16'7 6.9
2015-May-03 03:32N 48°13' W 123°05'10 8.5
2015-May-03 02:22N 48°12' W 122°51'8 8.2
2015-May-03 01:27N 48°08' W 122°41'6 6.7
2015-May-03 00:32N 48°02' W 122°38'6 6.4
2015-May-02 23:38N 47°57' W 122°33'1 6.9
2015-May-02 23:33N 47°57' W 122°33'2 6.4
2015-May-02 23:18N 47°56' W 122°31'5 6.5
2015-May-02 22:33N 47°52' W 122°28'1 6.7
2015-May-02 22:28N 47°51' W 122°27'6 6.7
2015-May-02 21:33N 47°45' W 122°26'6 6.5
2015-May-02 20:41N 47°40' W 122°27'1 6.5
2015-May-02 20:33N 47°39' W 122°27'0 6.1
2015-May-02 20:31N 47°39' W 122°27'4 4.6
2015-May-02 19:33N 47°36' W 122°22'0 0.0
2015-May-02 19:31N 47°36' W 122°22'1 0.6
2015-May-02 18:33N 47°35' W 122°21'0 0.0
2015-May-02 18:29N 47°35' W 122°21'0 0.0
2015-May-02 17:34N 47°35' W 122°21'0 0.0
2015-May-02 17:33N 47°35' W 122°21'0 0.0
2015-May-02 16:33N 47°35' W 122°21'0 0.0
2015-May-02 16:33N 47°35' W 122°21'0 0.0
2015-May-02 15:33N 47°35' W 122°21'0 0.2
2015-May-02 15:07N 47°35' W 122°21'1 1.0
2015-May-02 14:33N 47°35' W 122°22'0 0.0
2015-May-02 14:32N 47°35' W 122°22'1010.5
2015-May-02 13:33N 47°45' W 122°25'011.4
2015-May-02 13:32N 47°46' W 122°25'1313.6
2015-May-02 12:33N 47°58' W 122°17'3 2.9
2015-May-02 11:33N 47°59' W 122°13'0 0.0
2015-May-02 10:33N 47°59' W 122°13'0 0.0
2015-May-02 09:33N 47°59' W 122°13'0 0.0
2015-May-02 08:33N 47°59' W 122°13'0 0.0
2015-May-02 07:33N 47°59' W 122°13'0 0.0
2015-May-02 06:33N 47°59' W 122°13'0 0.0
2015-May-02 05:33N 47°59' W 122°13'0 0.0
2015-May-02 04:33N 47°59' W 122°13'0 0.0
2015-May-02 03:33N 47°59' W 122°13'0 0.0
2015-May-02 02:33N 47°59' W 122°13'  

Dump ship's entire track history